Time;durP1;ratioP1;P1;durP2;ratioP2;P2;SDS_P1;SDS_P2;PMS_P1;PMS_P2;Temp;Humidity;BMP_temperature;BMP_pressure;BME280_temperature;BME280_humidity;BME280_pressure;Samples;Min_cycle;Max_cycle;Signal;HPM_P1;HPM_P2
2022/01/19 00:00:17;;;;;;;8.10;3.40;;;;;;;0.91;52.34;102970.81;2569143;23;20233;-70
2022/01/19 00:01:18;;;;;;;7.22;3.10;;;;;;;1.54;52.53;103072.44;2582121;23;20318;-70
2022/01/19 00:02:18;;;;;;;7.67;3.20;;;;;;;1.65;52.33;103103.06;2568873;23;20650;-70
2022/01/19 00:03:19;;;;;;;5.23;2.97;;;;;;;1.67;52.49;103101.63;2568886;23;20155;-70
2022/01/19 00:04:19;;;;;;;8.50;3.37;;;;;;;1.00;52.20;103009.91;2582472;23;20151;-71
2022/01/19 00:05:20;;;;;;;6.30;2.73;;;;;;;1.71;52.28;103099.06;2582285;23;20150;-71
2022/01/19 00:06:20;;;;;;;7.70;3.07;;;;;;;1.09;52.02;103012.69;2582707;23;20572;-71
2022/01/19 00:07:21;;;;;;;7.17;2.90;;;;;;;0.93;52.15;102995.06;2582282;23;20203;-71
2022/01/19 00:08:22;;;;;;;6.60;2.80;;;;;;;1.62;52.11;103100.94;2583499;23;20154;-70
2022/01/19 00:09:24;;;;;;;6.35;3.03;;;;;;;1.59;52.23;103104.31;2583137;23;20224;-71
2022/01/19 00:10:28;;;;;;;6.38;2.78;;;;;;;1.58;52.31;103108.97;2583473;23;20672;-70
2022/01/19 00:11:28;;;;;;;7.18;3.20;;;;;;;1.50;52.52;103103.44;2583155;23;20163;-70
2022/01/19 00:12:30;;;;;;;7.37;3.60;;;;;;;1.59;52.23;103102.38;2583649;23;20173;-70
2022/01/19 00:13:31;;;;;;;5.78;2.85;;;;;;;1.56;52.13;103104.94;2583031;23;20148;-70
2022/01/19 00:14:31;;;;;;;8.20;2.83;;;;;;;1.52;52.52;103098.47;2583409;23;20172;-70
2022/01/19 00:15:32;;;;;;;7.93;3.07;;;;;;;1.53;52.67;103084.50;2583029;23;20167;-70
2022/01/19 00:16:32;;;;;;;7.13;2.93;;;;;;;1.49;52.65;103101.84;2583682;23;20279;-70
2022/01/19 00:17:32;;;;;;;7.03;2.83;;;;;;;1.51;52.60;103091.41;2583241;23;20148;-71
2022/01/19 00:18:33;;;;;;;6.60;3.20;;;;;;;1.53;52.73;103092.69;2583527;23;20201;-70
2022/01/19 00:19:34;;;;;;;6.40;3.17;;;;;;;1.31;52.72;103079.06;2583119;23;20147;-70
2022/01/19 00:20:35;;;;;;;7.10;3.20;;;;;;;0.87;52.37;102990.84;2583311;23;20203;-70
2022/01/19 00:21:36;;;;;;;8.38;3.20;;;;;;;1.62;52.30;103109.16;2583085;23;20151;-71
2022/01/19 00:22:37;;;;;;;6.60;3.20;;;;;;;1.65;52.14;103114.00;2583583;23;20144;-70
2022/01/19 00:23:38;;;;;;;7.93;3.22;;;;;;;1.72;52.37;103117.09;2583235;23;20179;-70
2022/01/19 00:24:40;;;;;;;7.37;3.03;;;;;;;1.73;51.88;103107.75;2582932;23;20155;-71
2022/01/19 00:25:40;;;;;;;6.40;3.35;;;;;;;1.77;51.92;103100.56;2583342;23;20184;-71
2022/01/19 00:26:42;;;;;;;7.23;3.17;;;;;;;1.80;51.81;103103.47;2583030;23;20160;-70
2022/01/19 00:27:42;;;;;;;7.38;3.25;;;;;;;0.89;51.83;102973.03;2582998;23;20153;-71
2022/01/19 00:28:43;;;;;;;5.97;2.70;;;;;;;1.83;51.85;103105.59;2583307;23;20152;-70
2022/01/19 00:29:43;;;;;;;6.97;2.90;;;;;;;1.86;51.77;103115.88;2583160;23;20220;-70
2022/01/19 00:30:44;;;;;;;7.83;3.07;;;;;;;1.89;51.68;103109.78;2583223;23;20155;-70
2022/01/19 00:31:45;;;;;;;6.90;2.85;;;;;;;1.91;51.34;103112.22;2583484;23;20252;-70
2022/01/19 00:32:45;;;;;;;7.50;3.23;;;;;;;1.97;51.15;103111.78;2570077;23;20753;-71
2022/01/19 00:33:46;;;;;;;7.87;2.70;;;;;;;1.63;51.28;103059.63;2569934;23;20176;-70
2022/01/19 00:34:46;;;;;;;7.33;2.80;;;;;;;1.96;51.31;103098.41;2582976;23;20220;-70
2022/01/19 00:35:48;;;;;;;7.63;2.87;;;;;;;1.95;51.61;103105.00;2583380;23;20582;-70
2022/01/19 00:36:49;;;;;;;6.35;2.88;;;;;;;1.90;51.45;103094.22;2583328;23;20537;-70
2022/01/19 00:37:50;;;;;;;6.17;2.90;;;;;;;1.09;51.66;102988.13;2583372;23;20154;-70
2022/01/19 00:38:50;;;;;;;5.53;2.77;;;;;;;1.80;51.84;103102.69;2583054;23;20187;-70
2022/01/19 00:39:51;;;;;;;5.00;2.70;;;;;;;1.82;51.45;103111.34;2569820;23;20158;-70
2022/01/19 00:40:54;;;;;;;8.07;3.20;;;;;;;1.83;51.46;103105.59;2569872;23;20174;-70
2022/01/19 00:41:56;;;;;;;8.07;3.20;;;;;;;1.73;51.64;103094.09;2583372;23;20183;-70
2022/01/19 00:42:56;;;;;;;8.63;2.95;;;;;;;1.64;51.54;103079.59;2569887;23;20161;-70
2022/01/19 00:43:57;;;;;;;6.40;2.87;;;;;;;1.86;51.51;103107.66;2569801;23;20155;-70
2022/01/19 00:44:58;;;;;;;6.60;3.33;;;;;;;1.39;51.40;103031.06;2582884;23;20166;-70
2022/01/19 00:45:58;;;;;;;5.87;2.97;;;;;;;1.90;51.77;103102.41;2583372;23;20212;-70
2022/01/19 00:46:59;;;;;;;6.33;2.63;;;;;;;1.25;51.34;102995.63;2583169;23;20177;-70
2022/01/19 00:47:59;;;;;;;7.07;3.00;;;;;;;1.88;51.39;103112.84;2570089;23;20245;-70
2022/01/19 00:49:00;;;;;;;7.37;2.90;;;;;;;1.35;51.21;103009.00;2569827;23;20203;-70
2022/01/19 00:50:01;;;;;;;7.90;3.00;;;;;;;1.81;51.33;103085.94;2583324;23;20152;-71
2022/01/19 00:51:01;;;;;;;5.32;2.95;;;;;;;1.71;51.18;103067.06;2583129;23;20251;-70
2022/01/19 00:52:02;;;;;;;6.50;3.10;;;;;;;1.44;51.25;103039.13;2583443;23;20153;-70
2022/01/19 00:53:03;;;;;;;7.53;3.20;;;;;;;1.80;51.45;103089.78;2583403;23;20148;-70
2022/01/19 00:54:03;;;;;;;6.03;3.20;;;;;;;1.77;51.61;103081.41;2582938;23;20386;-70
2022/01/19 00:55:06;;;;;;;6.80;2.77;;;;;;;1.18;51.37;102984.31;2583018;23;20231;-70
2022/01/19 00:56:07;;;;;;;6.38;3.20;;;;;;;1.84;51.54;103087.22;2583302;23;20289;-71
2022/01/19 00:57:08;;;;;;;9.47;3.50;;;;;;;1.69;51.63;103074.00;2583250;23;20146;-71
2022/01/19 00:58:09;;;;;;;7.47;2.90;;;;;;;1.78;51.77;103094.78;2583151;23;20157;-70
2022/01/19 00:59:09;;;;;;;7.33;3.30;;;;;;;1.79;51.59;103093.66;2583061;23;20157;-70
2022/01/19 01:00:15;;;;;;;6.33;2.93;;;;;;;1.79;51.30;103101.03;2583187;23;20240;-71
2022/01/19 01:01:16;;;;;;;5.03;2.60;;;;;;;1.78;51.20;103096.69;2583162;23;20221;-71
2022/01/19 01:02:16;;;;;;;6.40;2.60;;;;;;;1.75;51.61;103094.59;2583130;23;20160;-70
2022/01/19 01:03:17;;;;;;;5.90;2.90;;;;;;;1.79;51.58;103098.31;2582892;23;20176;-70
2022/01/19 01:04:18;;;;;;;8.40;3.07;;;;;;;1.77;51.28;103097.81;2583028;23;20152;-70
2022/01/19 01:05:19;;;;;;;6.50;2.83;;;;;;;1.70;51.46;103078.34;2583031;23;20153;-70
2022/01/19 01:06:20;;;;;;;7.18;3.58;;;;;;;1.76;51.70;103097.00;2583394;23;20155;-70
2022/01/19 01:07:21;;;;;;;5.13;2.80;;;;;;;1.74;51.57;103095.69;2583170;23;20475;-70
2022/01/19 01:08:21;;;;;;;7.33;2.80;;;;;;;1.76;51.43;103104.41;2583386;23;20153;-70
2022/01/19 01:09:22;;;;;;;6.87;2.80;;;;;;;1.72;51.62;103087.03;2582770;23;20159;-70
2022/01/19 01:10:23;;;;;;;5.63;2.60;;;;;;;1.71;51.86;103083.47;2583183;23;20207;-71
2022/01/19 01:11:29;;;;;;;6.93;3.00;;;;;;;1.71;51.94;103094.41;2582871;23;20503;-71
2022/01/19 01:12:50;;;;;;;7.15;2.97;;;;;;;1.71;51.65;103078.00;2583408;23;20223;-70
2022/01/19 01:16:30;;;;;;;7.15;3.03;;;;;;;1.41;51.86;103043.28;2583574;23;20137;-70
2022/01/19 01:18:49;;;;;;;6.93;3.13;;;;;;;1.64;52.09;103083.13;2582827;23;20657;-70
2022/01/19 01:19:50;;;;;;;6.87;3.20;;;;;;;1.62;51.91;103090.84;2582922;23;20499;-70
2022/01/19 01:20:54;;;;;;;4.80;2.60;;;;;;;1.62;52.48;103101.75;2569430;23;20552;-70
2022/01/19 01:21:54;;;;;;;8.57;3.00;;;;;;;1.34;52.29;103039.38;2570731;23;20157;-70
2022/01/19 01:22:55;;;;;;;9.20;2.83;;;;;;;0.79;52.48;102967.03;2583287;23;20186;-70
2022/01/19 01:23:56;;;;;;;5.73;2.67;;;;;;;0.79;52.18;102964.28;2582800;23;20148;-70
2022/01/19 01:24:56;;;;;;;6.17;2.53;;;;;;;1.64;51.75;103091.31;2582959;23;20180;-70
2022/01/19 01:25:57;;;;;;;6.70;2.87;;;;;;;1.60;51.68;103086.78;2583211;23;20173;-70
2022/01/19 01:26:57;;;;;;;7.10;2.83;;;;;;;1.58;51.88;103087.09;2583194;23;20176;-70
2022/01/19 01:27:58;;;;;;;5.43;2.50;;;;;;;1.51;51.60;103097.69;2583343;23;20157;-70
2022/01/19 01:28:58;;;;;;;5.73;2.63;;;;;;;1.59;51.90;103093.38;2583028;23;20180;-70
2022/01/19 01:29:59;;;;;;;6.13;3.00;;;;;;;1.58;51.83;103089.03;2583239;23;20159;-70
2022/01/19 01:30:59;;;;;;;5.40;2.97;;;;;;;1.61;52.02;103091.13;2582580;23;20630;-70
2022/01/19 01:32:00;;;;;;;5.73;2.73;;;;;;;1.65;51.85;103094.88;2583343;23;20149;-70
2022/01/19 01:33:01;;;;;;;7.40;3.10;;;;;;;1.65;51.24;103095.66;2583230;23;20160;-70
2022/01/19 01:34:01;;;;;;;7.23;2.70;;;;;;;1.67;51.61;103090.69;2582823;23;20147;-70
2022/01/19 01:35:02;;;;;;;6.90;2.97;;;;;;;1.66;51.45;103086.34;2582805;23;20157;-71
2022/01/19 01:36:03;;;;;;;5.30;2.70;;;;;;;1.65;51.35;103078.47;2583213;23;20152;-71
2022/01/19 01:37:04;;;;;;;8.35;3.10;;;;;;;1.61;51.43;103081.03;2583327;23;20151;-71
2022/01/19 01:38:06;;;;;;;6.03;2.73;;;;;;;1.20;51.58;103024.97;2583266;23;20155;-70
2022/01/19 01:39:06;;;;;;;5.60;2.88;;;;;;;1.54;51.77;103075.19;2569324;23;20506;-70
2022/01/19 01:40:09;;;;;;;5.77;2.77;;;;;;;1.50;52.44;103073.38;2569997;23;20235;-70
2022/01/19 01:41:13;;;;;;;7.22;2.85;;;;;;;1.42;52.54;103071.41;2582603;23;20151;-70
2022/01/19 01:42:17;;;;;;;7.40;2.50;;;;;;;1.31;52.36;103046.28;2583132;23;20155;-70
2022/01/19 01:43:18;;;;;;;5.15;2.60;;;;;;;1.48;52.20;103078.34;2582797;23;20151;-70
2022/01/19 01:44:18;;;;;;;6.77;3.40;;;;;;;0.90;52.17;102976.56;2583433;23;20242;-70
2022/01/19 01:45:24;;;;;;;5.97;2.87;;;;;;;1.47;51.89;103066.63;2582639;23;20159;-70
2022/01/19 01:46:44;;;;;;;4.63;2.35;;;;;;;1.45;52.42;103062.59;2583323;23;20132;-70
2022/01/19 01:47:50;;;;;;;5.72;2.50;;;;;;;1.46;52.50;103067.75;2583200;23;20188;-70
2022/01/19 01:48:50;;;;;;;7.38;2.75;;;;;;;1.45;52.19;103048.94;2583003;23;20215;-70
2022/01/19 01:53:33;;;;;;;6.63;2.90;;;;;;;0.71;52.08;102945.91;2582706;23;20491;-70
2022/01/19 01:54:34;;;;;;;6.88;2.70;;;;;;;0.03;52.02;102855.38;2582894;23;20492;-70
2022/01/19 01:55:34;;;;;;;8.10;2.83;;;;;;;0.54;53.02;102934.88;2569465;23;20243;-70
2022/01/19 01:56:35;;;;;;;6.33;2.30;;;;;;;0.28;53.06;102901.13;2569939;23;20292;-70
2022/01/19 01:57:35;;;;;;;6.33;2.77;;;;;;;1.13;53.04;103057.41;2582846;23;20152;-70
2022/01/19 01:58:39;;;;;;;4.77;2.57;;;;;;;1.00;53.55;103048.13;2583234;23;20568;-70
2022/01/19 01:59:40;;;;;;;6.85;2.67;;;;;;;0.64;53.43;102983.75;2582625;23;20471;-70
2022/01/19 02:00:41;;;;;;;6.20;2.67;;;;;;;1.06;53.77;103051.53;2582630;23;20255;-70
2022/01/19 02:01:41;;;;;;;8.27;3.10;;;;;;;1.01;53.68;103051.66;2582824;23;20153;-70
2022/01/19 02:02:42;;;;;;;8.47;3.10;;;;;;;0.44;53.86;102974.13;2583235;23;20159;-70
2022/01/19 02:03:45;;;;;;;6.37;3.07;;;;;;;0.50;54.67;102992.00;2582796;23;20168;-70
2022/01/19 02:04:46;;;;;;;8.07;3.17;;;;;;;0.90;54.46;103056.56;2582466;23;20390;-70
2022/01/19 02:07:32;;;;;;;8.40;2.80;;;;;;;0.07;55.04;102944.41;2582929;23;20179;-70
2022/01/19 02:08:39;;;;;;;9.63;3.13;;;;;;;0.76;54.42;103065.91;2583200;23;20152;-70
2022/01/19 02:09:41;;;;;;;6.88;2.92;;;;;;;0.72;54.44;103054.78;2582918;23;20136;-70
2022/01/19 02:11:29;;;;;;;7.28;3.05;;;;;;;0.70;55.13;103072.59;2582693;23;20199;-70
2022/01/19 02:16:50;;;;;;;8.80;2.92;;;;;;;0.64;55.12;103061.00;2582990;23;20490;-70
2022/01/19 02:22:41;;;;;;;6.35;2.88;;;;;;;-0.25;54.58;102911.06;2583067;23;20136;-70
2022/01/19 02:23:50;;;;;;;5.45;2.65;;;;;;;0.34;54.73;103006.28;2582725;23;20148;-70
2022/01/19 02:24:50;;;;;;;7.40;3.13;;;;;;;0.66;55.29;103047.00;2582645;23;20578;-70
2022/01/19 02:25:57;;;;;;;7.50;3.10;;;;;;;0.70;54.91;103048.03;2583145;23;20520;-70
2022/01/19 02:28:54;;;;;;;8.93;3.10;;;;;;;-0.42;54.42;102865.34;2582852;23;20583;-70
2022/01/19 02:30:32;;;;;;;6.65;3.15;;;;;;;0.71;55.05;103052.34;2582635;23;20144;-70
2022/01/19 02:40:19;;;;;;;8.23;3.67;;;;;;;0.91;55.01;103057.34;2583129;23;20168;-70
2022/01/19 02:41:19;;;;;;;9.85;4.05;;;;;;;0.91;55.67;103058.19;2582692;23;20144;-70
2022/01/19 02:42:24;;;;;;;9.57;3.67;;;;;;;0.98;54.58;103061.28;2582929;23;20182;-70
2022/01/19 02:43:27;;;;;;;9.60;4.60;;;;;;;1.01;54.74;103060.66;2569008;23;20228;-70
2022/01/19 02:49:36;;;;;;;9.32;4.13;;;;;;;1.01;55.12;103065.31;2582505;23;20147;-70
2022/01/19 02:50:37;;;;;;;7.43;4.27;;;;;;;1.03;55.44;103069.34;2582587;23;20167;-70
2022/01/19 02:51:37;;;;;;;14.50;5.23;;;;;;;0.98;55.33;103060.50;2582600;23;20151;-70
2022/01/19 02:52:38;;;;;;;11.67;5.00;;;;;;;1.04;55.49;103062.75;2583020;23;20182;-70
2022/01/19 02:53:38;;;;;;;10.60;4.60;;;;;;;1.02;55.27;103056.81;2582685;23;20168;-70
2022/01/19 02:54:39;;;;;;;13.77;5.17;;;;;;;1.03;55.05;103063.88;2582595;23;20227;-70
2022/01/19 02:55:40;;;;;;;8.77;4.80;;;;;;;1.08;55.34;103054.78;2582807;23;20148;-70
2022/01/19 02:56:44;;;;;;;11.23;4.57;;;;;;;1.08;55.46;103055.56;2569511;23;20156;-70
2022/01/19 02:57:46;;;;;;;9.55;4.75;;;;;;;1.07;54.97;103059.44;2570315;23;20231;-70
2022/01/19 02:58:52;;;;;;;10.15;5.00;;;;;;;1.15;55.31;103061.44;2582902;23;20152;-70
2022/01/19 03:08:57;;;;;;;10.73;4.80;;;;;;;1.30;54.93;103046.56;2582961;23;20144;-70
2022/01/19 03:09:57;;;;;;;11.88;4.85;;;;;;;1.26;54.87;103040.94;2582528;23;20159;-70
2022/01/19 03:10:58;;;;;;;10.83;5.17;;;;;;;1.26;55.30;103054.59;2582611;23;20223;-70
2022/01/19 03:11:58;;;;;;;10.73;5.20;;;;;;;0.80;54.84;102974.09;2582774;23;20202;-70
2022/01/19 03:12:59;;;;;;;11.43;4.73;;;;;;;1.34;54.87;103048.38;2582819;23;20649;-70
2022/01/19 03:13:59;;;;;;;13.00;4.93;;;;;;;0.73;55.19;102971.78;2569566;23;20653;-70
2022/01/19 03:15:00;;;;;;;9.63;5.23;;;;;;;1.24;55.34;103056.81;2569225;23;20527;-70
2022/01/19 03:16:01;;;;;;;11.17;4.90;;;;;;;1.18;55.47;103051.81;2582277;23;20232;-70
2022/01/19 03:17:01;;;;;;;11.40;5.20;;;;;;;1.14;55.76;103054.31;2569573;23;20175;-70
2022/01/19 03:18:02;;;;;;;9.40;4.63;;;;;;;0.56;55.64;102952.56;2569715;23;20164;-70
2022/01/19 03:19:03;;;;;;;13.87;5.77;;;;;;;0.55;55.56;102958.31;2582846;23;20147;-70
2022/01/19 03:20:06;;;;;;;15.43;5.40;;;;;;;0.87;55.94;103004.47;2582787;23;20206;-70
2022/01/19 03:21:06;;;;;;;11.52;5.70;;;;;;;0.44;55.55;102949.59;2582751;23;20154;-70
2022/01/19 03:22:07;;;;;;;12.10;5.30;;;;;;;-0.57;55.80;102770.34;2582878;23;20148;-70
2022/01/19 03:23:20;;;;;;;9.37;5.00;;;;;;;1.19;55.68;103047.94;2582982;23;20187;-70
2022/01/19 03:24:20;;;;;;;10.52;5.18;;;;;;;1.10;55.83;103047.91;2582904;23;20166;-70
2022/01/19 03:25:21;;;;;;;10.97;6.10;;;;;;;1.02;56.11;103045.06;2582810;23;20159;-70
2022/01/19 03:26:22;;;;;;;10.77;5.27;;;;;;;0.40;56.52;102951.31;2582864;23;20147;-70
2022/01/19 03:27:22;;;;;;;9.37;5.07;;;;;;;0.42;56.80;102959.97;2582785;23;20676;-70
2022/01/19 03:28:23;;;;;;;8.43;5.57;;;;;;;0.87;56.76;103037.25;2583018;23;20284;-70
2022/01/19 03:29:23;;;;;;;10.33;5.30;;;;;;;-0.21;56.75;102882.06;2569533;23;20225;-69
2022/01/19 03:30:24;;;;;;;10.93;5.83;;;;;;;0.66;56.65;103006.91;2569806;23;20224;-70
2022/01/19 03:31:24;;;;;;;11.93;5.60;;;;;;;0.89;57.00;103048.69;2582771;23;20151;-70
2022/01/19 03:32:26;;;;;;;9.83;5.27;;;;;;;0.73;57.13;103012.72;2583030;23;20150;-70
2022/01/19 03:33:26;;;;;;;11.40;5.57;;;;;;;0.94;56.72;103051.28;2582486;23;20491;-70
2022/01/19 03:34:28;;;;;;;10.33;5.80;;;;;;;0.91;57.25;103057.34;2582821;23;20222;-70
2022/01/19 03:35:29;;;;;;;12.55;5.57;;;;;;;0.54;56.81;102989.47;2582626;23;20182;-70
2022/01/19 03:36:30;;;;;;;10.30;5.43;;;;;;;0.89;56.82;103065.84;2582906;23;20151;-70
2022/01/19 03:37:30;;;;;;;10.17;5.20;;;;;;;0.41;57.26;102976.69;2582869;23;20151;-70
2022/01/19 03:38:31;;;;;;;11.57;5.43;;;;;;;0.99;57.09;103059.38;2583055;23;20152;-70
2022/01/19 03:39:32;;;;;;;9.57;5.40;;;;;;;0.18;56.96;102936.81;2569390;23;20514;-70
2022/01/19 03:40:34;;;;;;;10.52;5.63;;;;;;;1.00;56.69;103066.44;2569490;23;20152;-70
2022/01/19 03:41:34;;;;;;;9.60;5.70;;;;;;;1.04;56.83;103068.22;2582583;23;20171;-70
2022/01/19 03:42:35;;;;;;;13.23;6.00;;;;;;;0.30;57.50;102980.72;2569301;23;20164;-70
2022/01/19 03:43:36;;;;;;;11.80;5.93;;;;;;;1.05;56.88;103072.59;2569479;23;20179;-70
2022/01/19 03:44:36;;;;;;;12.07;5.53;;;;;;;1.00;57.48;103067.25;2581814;23;20159;-70
2022/01/19 03:45:37;;;;;;;9.90;5.50;;;;;;;1.02;57.11;103069.66;2582197;23;20148;-70
2022/01/19 03:46:53;;;;;;;10.70;5.88;;;;;;;1.02;57.40;103067.75;2569354;23;20159;-70
2022/01/19 03:48:12;;;;;;;9.77;5.38;;;;;;;1.07;56.95;103064.88;2572772;23;20136;-70
2022/01/19 03:49:22;;;;;;;12.40;5.90;;;;;;;1.07;56.85;103064.06;2582853;23;20142;-70
2022/01/19 03:50:23;;;;;;;13.43;6.07;;;;;;;1.10;57.30;103072.47;2582997;23;20156;-70
2022/01/19 03:51:24;;;;;;;15.67;5.90;;;;;;;1.09;57.35;103072.78;2582643;23;20143;-70
2022/01/19 03:52:25;;;;;;;11.63;5.80;;;;;;;-0.21;57.05;102849.38;2583081;23;20436;-70
2022/01/19 03:53:26;;;;;;;14.40;6.40;;;;;;;1.16;56.82;103071.22;2582531;23;20370;-70
2022/01/19 03:54:27;;;;;;;10.07;5.70;;;;;;;1.22;57.02;103072.72;2582842;23;20155;-70
2022/01/19 03:55:28;;;;;;;10.13;5.32;;;;;;;1.27;56.94;103064.41;2582522;23;20155;-70
2022/01/19 03:56:28;;;;;;;10.73;5.57;;;;;;;1.08;56.87;103033.72;2582965;23;20154;-70
2022/01/19 03:57:29;;;;;;;11.63;6.23;;;;;;;1.33;56.64;103063.16;2582754;23;20143;-70
2022/01/19 03:58:30;;;;;;;11.03;5.30;;;;;;;1.32;56.72;103067.00;2582074;23;20156;-70
2022/01/19 03:59:31;;;;;;;11.40;6.17;;;;;;;1.33;56.61;103065.88;2581926;23;20618;-70
2022/01/19 04:00:35;;;;;;;13.60;6.28;;;;;;;1.36;56.92;103062.53;2582817;23;20538;-70
2022/01/19 04:01:35;;;;;;;12.73;6.55;;;;;;;1.29;56.68;103067.63;2582804;23;20210;-70
2022/01/19 04:02:36;;;;;;;9.80;5.83;;;;;;;0.60;56.94;102947.28;2582924;23;20230;-70
2022/01/19 04:05:03;;;;;;;12.48;6.15;;;;;;;1.38;56.59;103060.28;2582634;23;20144;-70
2022/01/19 04:06:17;;;;;;;10.90;5.57;;;;;;;1.34;57.03;103062.03;2582934;23;20142;-70
2022/01/19 04:07:18;;;;;;;10.90;5.60;;;;;;;0.41;56.59;102914.72;2582788;23;20194;-70
2022/01/19 04:08:18;;;;;;;12.13;6.17;;;;;;;1.17;56.91;103040.06;2582995;23;20152;-70
2022/01/19 04:09:19;;;;;;;13.83;6.30;;;;;;;0.72;56.70;102955.75;2582784;23;20151;-70
2022/01/19 04:10:19;;;;;;;10.93;6.27;;;;;;;1.29;57.25;103053.94;2582888;23;20683;-70
2022/01/19 04:11:22;;;;;;;14.07;6.33;;;;;;;1.19;56.75;103040.56;2582228;23;20246;-70
2022/01/19 04:12:42;;;;;;;12.27;5.93;;;;;;;1.32;57.28;103064.28;2582895;23;20222;-70
2022/01/19 04:15:02;;;;;;;12.27;5.97;;;;;;;1.33;57.25;103060.41;2582603;23;20140;-70
2022/01/19 04:16:03;;;;;;;13.20;6.30;;;;;;;0.61;57.05;102949.72;2582884;23;20152;-70
2022/01/19 04:17:06;;;;;;;13.57;6.63;;;;;;;1.30;57.22;103071.16;2582739;23;20223;-70
2022/01/19 04:18:07;;;;;;;12.02;6.78;;;;;;;1.30;57.34;103076.63;2569365;23;20164;-70
2022/01/19 04:20:14;;;;;;;14.82;7.00;;;;;;;0.94;56.95;103024.78;2583076;23;20144;-70
2022/01/19 04:21:14;;;;;;;10.67;6.37;;;;;;;0.66;57.42;102976.06;2582387;23;20152;-70
2022/01/19 04:22:18;;;;;;;12.43;6.40;;;;;;;1.11;57.16;103052.22;2582757;23;20179;-70
2022/01/19 04:23:21;;;;;;;14.60;5.93;;;;;;;1.31;57.58;103089.16;2569269;23;20245;-70
2022/01/19 04:24:23;;;;;;;10.35;6.47;;;;;;;1.27;57.60;103083.53;2569917;23;20144;-70
2022/01/19 04:25:23;;;;;;;11.68;6.30;;;;;;;1.16;57.75;103068.50;2582533;23;20254;-70
2022/01/19 04:26:24;;;;;;;11.37;6.40;;;;;;;1.20;57.73;103085.88;2582991;23;20223;-70
2022/01/19 04:28:25;;;;;;;12.60;6.50;;;;;;;1.31;57.51;103091.91;2582891;23;20151;-70
2022/01/19 04:29:25;;;;;;;13.23;6.30;;;;;;;0.82;57.52;103008.16;2582718;23;20144;-70
2022/01/19 04:30:27;;;;;;;12.37;6.13;;;;;;;1.31;57.42;103091.91;2582753;23;20148;-70
2022/01/19 04:31:27;;;;;;;14.50;6.88;;;;;;;1.30;57.33;103090.28;2582528;23;20151;-70
2022/01/19 04:32:45;;;;;;;11.07;6.00;;;;;;;1.01;57.23;103040.75;2583057;23;20160;-70
2022/01/19 04:33:45;;;;;;;11.13;5.57;;;;;;;1.15;57.47;103052.41;2582355;23;20135;-70
2022/01/19 04:34:48;;;;;;;11.63;6.27;;;;;;;0.71;57.34;102984.94;2582331;23;20148;-70
2022/01/19 04:35:51;;;;;;;11.60;5.78;;;;;;;0.92;57.14;103031.66;2582758;23;20152;-70
2022/01/19 04:45:38;;;;;;;13.43;5.30;;;;;;;1.40;55.77;103098.25;2570630;23;20507;-70
2022/01/19 04:48:03;;;;;;;10.65;5.25;;;;;;;0.59;55.64;102989.34;2582601;23;20180;-70
2022/01/19 05:04:32;;;;;;;11.02;5.47;;;;;;;0.91;57.33;103073.75;2583314;23;20139;-70
2022/01/19 05:05:43;;;;;;;11.65;4.63;;;;;;;0.94;57.60;103094.97;2582635;23;20169;-71
2022/01/19 05:06:47;;;;;;;8.75;5.22;;;;;;;0.97;57.27;103095.16;2583269;23;20570;-70
2022/01/19 05:09:05;;;;;;;12.23;5.63;;;;;;;0.86;58.09;103084.78;2583382;23;20162;-69
2022/01/19 05:14:03;;;;;;;11.43;5.90;;;;;;;0.31;58.09;102988.59;2583754;23;20136;-69
2022/01/19 05:15:08;;;;;;;9.57;5.70;;;;;;;0.26;58.52;102980.53;2583941;23;20151;-69
2022/01/19 05:16:08;;;;;;;11.60;5.72;;;;;;;0.70;58.67;103061.66;2583648;23;20693;-69
2022/01/19 05:17:09;;;;;;;14.50;6.27;;;;;;;0.92;58.78;103092.56;2583624;23;20154;-69
2022/01/19 05:18:09;;;;;;;11.50;6.20;;;;;;;0.90;58.82;103092.06;2583645;23;20155;-69
2022/01/19 05:19:10;;;;;;;11.47;6.63;;;;;;;0.90;59.29;103089.34;2583805;23;20158;-69
2022/01/19 05:20:12;;;;;;;13.17;7.13;;;;;;;0.36;59.52;103009.53;2583544;23;20506;-69
2022/01/19 05:21:12;;;;;;;16.85;7.43;;;;;;;0.93;58.76;103096.88;2583493;23;20505;-69
2022/01/19 05:22:13;;;;;;;11.03;6.43;;;;;;;0.97;58.31;103095.16;2583729;23;20175;-69
2022/01/19 05:23:14;;;;;;;14.07;7.37;;;;;;;0.99;58.79;103090.19;2583679;23;20178;-69
2022/01/19 05:24:15;;;;;;;16.95;7.55;;;;;;;1.00;58.76;103096.47;2583586;23;20175;-68
2022/01/19 05:25:15;;;;;;;15.10;7.30;;;;;;;1.04;58.57;103094.75;2570263;23;20167;-68
2022/01/19 05:26:17;;;;;;;13.87;7.13;;;;;;;1.00;58.65;103096.47;2570322;23;20617;-69
2022/01/19 05:27:20;;;;;;;11.57;7.75;;;;;;;0.91;58.62;103088.22;2583708;23;20185;-68
2022/01/19 05:28:21;;;;;;;12.73;7.72;;;;;;;0.22;58.96;102976.78;2583528;23;20151;-68
2022/01/19 05:29:21;;;;;;;13.10;7.47;;;;;;;0.35;58.90;103000.53;2570118;23;20194;-69
2022/01/19 05:30:22;;;;;;;14.10;7.03;;;;;;;0.50;58.72;103030.19;2570072;23;20154;-69
2022/01/19 05:31:23;;;;;;;15.13;7.87;;;;;;;0.82;59.11;103095.50;2582857;23;20151;-69
2022/01/19 05:32:24;;;;;;;12.10;7.70;;;;;;;0.90;58.92;103097.53;2583429;23;20513;-68
2022/01/19 05:33:24;;;;;;;14.57;7.63;;;;;;;-0.61;58.90;102861.94;2583345;23;20186;-69
2022/01/19 05:34:25;;;;;;;14.17;7.67;;;;;;;0.94;59.13;103108.63;2583293;23;20148;-69
2022/01/19 05:35:27;;;;;;;17.10;8.20;;;;;;;0.94;59.19;103100.44;2583275;23;20178;-69
2022/01/19 05:36:27;;;;;;;13.48;7.90;;;;;;;0.95;59.16;103105.59;2582512;23;20153;-68
2022/01/19 05:37:28;;;;;;;15.03;8.70;;;;;;;0.97;59.28;103099.81;2582623;23;20207;-68
2022/01/19 05:38:29;;;;;;;15.70;9.40;;;;;;;1.04;58.96;103108.41;2582877;23;20151;-68
2022/01/19 05:39:29;;;;;;;13.87;8.33;;;;;;;1.05;59.08;103112.75;2582960;23;20171;-69
2022/01/19 05:40:30;;;;;;;15.20;8.87;;;;;;;1.06;59.42;103103.41;2582981;23;20205;-68
2022/01/19 05:41:33;;;;;;;18.53;8.67;;;;;;;1.10;58.64;103105.25;2569266;23;20156;-68
2022/01/19 05:42:34;;;;;;;14.65;8.93;;;;;;;1.12;58.69;103104.91;2569538;23;20206;-68
2022/01/19 05:43:35;;;;;;;18.73;9.15;;;;;;;1.15;58.84;103107.03;2582823;23;20502;-68
2022/01/19 05:44:35;;;;;;;18.40;9.20;;;;;;;1.17;59.11;103099.34;2582863;23;20151;-68
2022/01/19 05:45:37;;;;;;;17.90;10.10;;;;;;;0.81;58.95;103039.31;2569186;23;20262;-68
2022/01/19 05:46:37;;;;;;;16.42;9.85;;;;;;;1.17;58.86;103102.06;2569341;23;20624;-68
2022/01/19 05:47:38;;;;;;;16.60;9.00;;;;;;;1.05;58.67;103094.44;2582682;23;20194;-68
2022/01/19 05:48:39;;;;;;;25.17;10.57;;;;;;;0.91;58.36;103087.38;2569218;23;20608;-68
2022/01/19 05:49:45;;;;;;;25.20;11.20;;;;;;;1.19;59.94;103106.09;2569195;23;20155;-68
2022/01/19 05:50:45;;;;;;;19.27;11.05;;;;;;;0.47;60.12;102975.44;2582732;23;20467;-68
2022/01/19 05:51:47;;;;;;;26.90;16.63;;;;;;;0.35;59.11;102950.59;2582428;23;20174;-68
2022/01/19 05:52:48;;;;;;;21.92;14.15;;;;;;;1.30;58.32;103107.47;2582433;23;20175;-68
2022/01/19 05:53:49;;;;;;;20.03;11.27;;;;;;;0.45;58.54;102973.00;2581975;23;20159;-68
2022/01/19 05:54:49;;;;;;;19.93;12.80;;;;;;;1.30;58.58;103102.00;2580956;23;20630;-68
2022/01/19 05:55:50;;;;;;;29.90;16.67;;;;;;;0.54;58.19;102995.72;2581865;23;20473;-67
2022/01/19 05:56:52;;;;;;;22.70;12.53;;;;;;;1.23;58.79;103090.72;2582099;23;20151;-68
2022/01/19 05:57:53;;;;;;;25.88;14.73;;;;;;;1.32;58.29;103107.97;2581995;23;20152;-71
2022/01/19 05:58:53;;;;;;;28.60;17.00;;;;;;;1.33;58.30;103103.31;2579703;23;20168;-70
2022/01/19 05:59:54;;;;;;;36.67;21.57;;;;;;;1.36;57.91;103113.63;2582750;23;20155;-71
2022/01/19 06:00:55;;;;;;;26.47;14.50;;;;;;;1.14;57.97;103073.44;2581002;23;20152;-70
2022/01/19 06:01:59;;;;;;;19.70;10.60;;;;;;;1.35;58.01;103106.56;2581751;23;20767;-71
2022/01/19 06:02:59;;;;;;;24.02;14.35;;;;;;;0.87;57.83;103024.41;2581334;23;20154;-70
2022/01/19 06:04:00;;;;;;;39.80;21.47;;;;;;;1.37;57.52;103099.66;2580923;23;20155;-71
2022/01/19 06:05:00;;;;;;;32.67;19.23;;;;;;;0.92;57.43;103048.88;2580346;23;20178;-71
2022/01/19 06:06:01;;;;;;;27.30;16.57;;;;;;;1.37;57.75;103110.59;2578107;23;20233;-70
2022/01/19 06:07:03;;;;;;;26.10;16.87;;;;;;;0.29;57.59;102949.94;2567554;23;20203;-71
2022/01/19 06:09:36;;;;;;;20.45;10.60;;;;;;;0.90;57.54;103066.66;2580851;23;20738;-71
2022/01/19 06:10:42;;;;;;;17.70;10.18;;;;;;;1.28;57.43;103112.44;2567894;23;20218;-68